createdAt,value
2018-03-03T00:01:25.025Z,5.80
2018-03-03T00:03:52.464Z,6.40
2018-03-03T00:06:19.923Z,6.90
2018-03-03T00:08:47.389Z,6.50
2018-03-03T00:11:14.840Z,7.15
2018-03-03T00:13:42.292Z,6.82
2018-03-03T00:16:09.763Z,6.40
2018-03-03T00:18:37.221Z,6.12
2018-03-03T00:21:04.681Z,6.65
2018-03-03T00:23:32.134Z,6.40
2018-03-03T00:25:59.593Z,6.47
2018-03-03T00:28:27.046Z,6.32
2018-03-03T00:30:54.504Z,6.37
2018-03-03T00:33:21.962Z,5.93
2018-03-03T00:35:49.410Z,6.60
2018-03-03T00:38:16.885Z,6.60
2018-03-03T00:40:44.336Z,7.68
2018-03-03T00:43:11.784Z,5.93
2018-03-03T00:45:39.247Z,7.32
2018-03-03T00:48:06.704Z,6.07
2018-03-03T00:50:34.172Z,6.40
2018-03-03T00:53:01.633Z,7.37
2018-03-03T00:55:29.108Z,7.68
2018-03-03T00:57:57.328Z,6.35
2018-03-03T01:00:25.198Z,5.75
2018-03-03T01:02:52.655Z,6.87
2018-03-03T01:05:20.112Z,6.50
2018-03-03T01:07:47.575Z,6.60
2018-03-03T01:10:15.045Z,6.55
2018-03-03T01:12:42.507Z,7.22
2018-03-03T01:15:09.961Z,7.12
2018-03-03T01:17:37.423Z,6.25
2018-03-03T01:20:04.875Z,6.62
2018-03-03T01:22:32.344Z,7.12
2018-03-03T01:24:59.796Z,6.70
2018-03-03T01:27:27.260Z,7.85
2018-03-03T01:29:54.708Z,7.32
2018-03-03T01:32:22.168Z,7.18
2018-03-03T01:34:49.620Z,6.95
2018-03-03T01:37:17.087Z,6.90
2018-03-03T01:39:44.544Z,6.70
2018-03-03T01:42:12.767Z,6.55
2018-03-03T01:44:40.222Z,6.62
2018-03-03T01:47:08.469Z,6.62
2018-03-03T01:49:35.932Z,6.15
2018-03-03T01:52:03.397Z,5.70
2018-03-03T01:54:30.862Z,7.28
2018-03-03T01:56:59.112Z,7.03
2018-03-03T01:59:26.569Z,6.10
2018-03-03T02:01:54.028Z,5.62
2018-03-03T02:04:21.480Z,5.55
2018-03-03T02:06:48.952Z,6.28
2018-03-03T02:09:16.406Z,7.60
2018-03-03T02:11:43.876Z,6.97
2018-03-03T02:14:11.330Z,7.18
2018-03-03T02:16:38.791Z,6.00
2018-03-03T02:19:06.260Z,6.82
2018-03-03T02:21:34.484Z,6.72
2018-03-03T02:24:01.953Z,6.00
2018-03-03T02:26:29.411Z,6.62
2018-03-03T02:28:56.880Z,7.20
2018-03-03T02:31:24.332Z,6.85
2018-03-03T02:33:51.795Z,6.32
2018-03-03T02:36:19.245Z,6.12
2018-03-03T02:38:46.701Z,6.22
2018-03-03T02:41:14.149Z,6.37
2018-03-03T02:43:41.616Z,6.47
2018-03-03T02:46:09.070Z,6.70
2018-03-03T02:48:36.524Z,6.78
2018-03-03T02:51:03.973Z,6.50
2018-03-03T02:53:31.438Z,5.62
2018-03-03T02:55:58.899Z,8.20
2018-03-03T02:58:26.389Z,6.05
2018-03-03T03:00:53.847Z,6.32
2018-03-03T03:03:21.304Z,5.20
2018-03-03T03:05:48.758Z,7.10
2018-03-03T03:08:16.217Z,5.53
2018-03-03T03:10:43.667Z,7.20
2018-03-03T03:13:11.133Z,7.07
2018-03-03T03:15:38.591Z,5.22
2018-03-03T03:18:06.039Z,6.43
2018-03-03T03:20:33.503Z,6.03
2018-03-03T03:23:00.948Z,5.10
2018-03-03T03:25:28.409Z,6.35
2018-03-03T03:27:55.879Z,6.60
2018-03-03T03:30:23.343Z,6.45
2018-03-03T03:32:50.790Z,5.25
2018-03-03T03:35:18.258Z,5.90
2018-03-03T03:37:45.718Z,6.55
2018-03-03T03:40:13.177Z,6.72
2018-03-03T03:42:40.644Z,6.35
2018-03-03T03:45:08.877Z,5.65
2018-03-03T03:47:36.336Z,6.75
2018-03-03T03:50:03.821Z,6.05
2018-03-03T03:52:31.282Z,7.05
2018-03-03T03:54:58.754Z,6.72
2018-03-03T03:57:26.971Z,6.45
2018-03-03T03:59:54.444Z,7.50
2018-03-03T04:02:21.895Z,7.03
2018-03-03T04:04:49.361Z,5.45
2018-03-03T04:07:16.837Z,7.12
2018-03-03T04:09:44.302Z,6.70
2018-03-03T04:12:11.756Z,6.87
2018-03-03T04:14:39.227Z,6.30
2018-03-03T04:17:07.454Z,6.35
2018-03-03T04:19:34.924Z,7.68
2018-03-03T04:22:03.168Z,6.47
2018-03-03T04:24:30.640Z,7.10
2018-03-03T04:26:58.104Z,6.22
2018-03-03T04:29:25.548Z,7.82
2018-03-03T04:31:53.012Z,8.00
2018-03-03T04:34:20.467Z,6.47
2018-03-03T04:36:47.936Z,6.22
2018-03-03T04:39:15.397Z,7.62
2018-03-03T04:41:42.862Z,5.78
2018-03-03T04:44:10.305Z,7.15
2018-03-03T04:46:37.768Z,7.55
2018-03-03T04:49:05.225Z,7.47
2018-03-03T04:51:32.683Z,6.90
2018-03-03T04:54:00.144Z,7.53
2018-03-03T04:56:27.605Z,7.03
2018-03-03T04:58:55.971Z,6.12
2018-03-03T05:01:23.455Z,6.32
2018-03-03T05:03:56.710Z,5.57
2018-03-03T05:06:25.711Z,7.05
2018-03-03T05:08:53.180Z,6.90
2018-03-03T05:11:20.662Z,8.32
2018-03-03T05:13:48.119Z,6.62
2018-03-03T05:16:21.192Z,6.60
2018-03-03T05:18:54.389Z,7.55
2018-03-03T05:21:27.465Z,7.00
2018-03-03T05:24:07.668Z,8.13
2018-03-03T05:26:41.598Z,7.10
2018-03-03T05:29:15.583Z,7.18
2018-03-03T05:32:00.856Z,7.28
2018-03-03T05:34:44.989Z,6.55
2018-03-03T05:37:13.397Z,6.35
2018-03-03T05:39:51.539Z,7.47
2018-03-03T05:42:35.800Z,6.95
2018-03-03T05:45:08.941Z,8.38
2018-03-03T05:47:53.272Z,7.30
2018-03-03T05:50:37.435Z,8.25
2018-03-03T05:53:20.545Z,7.50
2018-03-03T05:55:53.564Z,7.32
2018-03-03T05:58:42.672Z,5.82
2018-03-03T06:01:25.820Z,6.07
2018-03-03T06:04:08.173Z,7.22
2018-03-03T06:06:57.480Z,7.43
2018-03-03T06:09:27.788Z,6.68
2018-03-03T06:11:55.252Z,7.37
2018-03-03T06:14:22.712Z,7.47
2018-03-03T06:16:50.170Z,7.32
2018-03-03T06:19:17.624Z,6.65
2018-03-03T06:21:45.071Z,6.53
2018-03-03T06:24:12.540Z,7.05
2018-03-03T06:26:39.992Z,6.60
2018-03-03T06:29:07.460Z,6.45
2018-03-03T06:31:34.919Z,7.10
2018-03-03T06:34:02.376Z,6.12
2018-03-03T06:36:29.840Z,7.28
2018-03-03T06:38:57.301Z,8.35
2018-03-03T06:41:24.760Z,6.53
2018-03-03T06:43:52.222Z,6.65
2018-03-03T06:46:19.676Z,7.32
2018-03-03T06:48:47.144Z,8.07
2018-03-03T06:51:14.600Z,7.53
2018-03-03T06:53:42.062Z,7.95
2018-03-03T06:56:09.506Z,6.22
2018-03-03T06:58:36.981Z,8.48
2018-03-03T07:01:04.430Z,7.60
2018-03-03T07:03:31.901Z,7.25
2018-03-03T07:05:59.832Z,7.70
2018-03-03T07:08:28.417Z,8.57
2018-03-03T07:10:56.393Z,7.70
2018-03-03T07:13:24.693Z,8.70
2018-03-03T07:15:52.157Z,7.97
2018-03-03T07:18:19.627Z,7.78
2018-03-03T07:20:47.102Z,9.30
2018-03-03T07:23:15.329Z,8.52
2018-03-03T07:25:42.788Z,8.48
2018-03-03T07:28:10.245Z,6.95
2018-03-03T07:30:37.744Z,8.23
2018-03-03T07:33:05.968Z,8.50
2018-03-03T07:35:33.478Z,7.55
2018-03-03T07:38:00.891Z,9.45
2018-03-03T07:40:28.356Z,10.30
2018-03-03T07:42:55.817Z,9.50
2018-03-03T07:45:23.281Z,8.07
2018-03-03T07:47:51.507Z,9.82
2018-03-03T07:50:18.969Z,8.68
2018-03-03T07:52:46.457Z,7.65
2018-03-03T07:55:13.924Z,9.18
2018-03-03T07:57:41.873Z,8.13
2018-03-03T08:00:09.852Z,9.90
2018-03-03T08:02:37.607Z,9.38
2018-03-03T08:05:06.293Z,7.65
2018-03-03T08:07:34.056Z,9.30
2018-03-03T08:10:02.745Z,7.78
2018-03-03T08:12:30.617Z,9.13
2018-03-03T08:14:58.272Z,8.45
2018-03-03T08:17:25.735Z,9.18
2018-03-03T08:19:53.207Z,7.70
2018-03-03T08:22:20.732Z,9.75
2018-03-03T08:24:48.957Z,9.43
2018-03-03T08:27:16.408Z,10.93
2018-03-03T08:29:43.852Z,8.73
2018-03-03T08:32:13.329Z,9.80
2018-03-03T08:34:41.082Z,8.90
2018-03-03T08:37:09.317Z,10.02
2018-03-03T08:39:36.790Z,9.20
2018-03-03T08:42:04.255Z,9.20
2018-03-03T08:44:32.174Z,8.85
2018-03-03T08:47:00.055Z,8.90
2018-03-03T08:49:27.908Z,9.00
2018-03-03T08:51:55.449Z,9.48
2018-03-03T08:57:13.705Z,7.97
2018-03-03T08:59:41.904Z,9.32
2018-03-03T09:02:09.369Z,9.00
2018-03-03T09:04:36.865Z,9.43
2018-03-03T09:07:04.297Z,9.10
2018-03-03T09:09:31.763Z,7.30
2018-03-03T09:11:59.222Z,9.60
2018-03-03T09:14:26.684Z,10.73
2018-03-03T09:16:54.157Z,11.35
2018-03-03T09:19:21.630Z,10.05
2018-03-03T09:21:49.869Z,9.48
2018-03-03T09:24:17.324Z,9.48
2018-03-03T09:26:45.553Z,9.40
2018-03-03T09:29:13.026Z,8.70
2018-03-03T09:31:40.490Z,10.05
2018-03-03T09:37:11.819Z,8.98
2018-03-03T09:41:58.291Z,9.20
2018-03-03T09:44:26.584Z,10.23
2018-03-03T09:46:54.061Z,9.43
2018-03-03T09:49:21.895Z,9.35
2018-03-03T09:51:49.745Z,8.27
2018-03-03T09:54:17.410Z,9.45
2018-03-03T09:56:45.377Z,9.60
2018-03-03T09:59:13.252Z,9.57
2018-03-03T10:01:43.361Z,8.95
2018-03-03T10:04:09.188Z,9.93
2018-03-03T10:06:37.163Z,10.20
2018-03-03T10:09:05.125Z,9.30
2018-03-03T10:11:33.203Z,8.95
2018-03-03T10:14:01.165Z,9.50
2018-03-03T10:16:29.142Z,10.32
2018-03-03T10:18:56.809Z,9.52
2018-03-03T10:21:24.769Z,9.15
2018-03-03T10:23:52.737Z,9.10
2018-03-03T10:26:20.714Z,8.95
2018-03-03T10:28:48.676Z,9.15
2018-03-03T10:31:16.857Z,8.45
2018-03-03T10:33:44.745Z,8.13
2018-03-03T10:36:12.340Z,7.55
2018-03-03T10:38:41.537Z,7.85
2018-03-03T10:41:10.373Z,7.43
2018-03-03T10:43:38.040Z,7.65
2018-03-03T10:46:05.522Z,8.00
2018-03-03T10:48:33.461Z,8.13
2018-03-03T10:51:01.361Z,7.95
2018-03-03T10:53:29.298Z,8.43
2018-03-03T10:55:56.965Z,8.38
2018-03-03T10:58:24.625Z,7.03
2018-03-03T11:00:52.465Z,7.32
2018-03-03T11:03:20.464Z,7.10
2018-03-03T11:05:48.121Z,9.32
2018-03-03T11:08:16.199Z,7.65
2018-03-03T11:10:44.063Z,7.43
2018-03-03T11:13:11.931Z,7.75
2018-03-03T11:15:39.910Z,8.52
2018-03-03T11:18:07.773Z,8.32
2018-03-03T11:20:35.737Z,7.72
2018-03-03T11:23:03.610Z,8.80
2018-03-03T11:25:31.479Z,8.85
2018-03-03T11:27:59.446Z,8.43
2018-03-03T11:30:28.135Z,8.00
2018-03-03T11:32:56.088Z,8.43
2018-03-03T11:35:24.314Z,8.10
2018-03-03T11:37:52.138Z,8.05
2018-03-03T11:40:20.108Z,8.00
2018-03-03T11:42:47.980Z,8.20
2018-03-03T11:45:15.849Z,7.15
2018-03-03T11:47:44.987Z,7.80
2018-03-03T11:50:12.505Z,8.40
2018-03-03T11:52:39.994Z,8.40
2018-03-03T11:55:07.479Z,8.77
2018-03-03T11:57:35.382Z,8.82
2018-03-03T12:00:03.256Z,8.48
2018-03-03T12:02:31.121Z,7.90
2018-03-03T12:04:58.984Z,8.85
2018-03-03T12:07:26.856Z,8.93
2018-03-03T12:09:56.361Z,9.02
2018-03-03T12:12:23.854Z,8.02
2018-03-03T12:14:51.327Z,7.60
2018-03-03T12:17:18.969Z,8.93
2018-03-03T12:19:46.451Z,8.70
2018-03-03T12:22:14.735Z,9.02
2018-03-03T12:24:42.187Z,8.90
2018-03-03T12:27:09.651Z,8.20
2018-03-03T12:29:37.866Z,8.90
2018-03-03T12:32:05.346Z,9.23
2018-03-03T12:34:33.587Z,9.10
2018-03-03T12:37:01.074Z,9.13
2018-03-03T12:39:28.537Z,8.82
2018-03-03T12:41:56.010Z,9.07
2018-03-03T12:44:23.464Z,9.48
2018-03-03T12:46:50.934Z,9.07
2018-03-03T12:49:18.400Z,10.32
2018-03-03T12:51:45.872Z,9.70
2018-03-03T12:54:14.121Z,9.80
2018-03-03T12:56:41.588Z,10.05
2018-03-03T12:59:09.071Z,9.18
2018-03-03T13:01:37.300Z,8.93
2018-03-03T13:04:04.788Z,9.18
2018-03-03T13:06:33.051Z,10.60
2018-03-03T13:09:00.552Z,10.18
2018-03-03T13:11:28.022Z,10.48
2018-03-03T13:13:55.489Z,9.63
2018-03-03T13:16:22.945Z,9.60
2018-03-03T13:18:50.401Z,8.55
2018-03-03T13:21:17.853Z,8.05
2018-03-03T13:23:45.315Z,9.68
2018-03-03T13:26:12.775Z,9.82
2018-03-03T13:28:40.258Z,10.82
2018-03-03T13:31:07.710Z,9.45
2018-03-03T13:33:35.187Z,9.88
2018-03-03T13:36:02.671Z,9.07
2018-03-03T13:38:30.905Z,10.43
2018-03-03T13:40:58.377Z,8.50
2018-03-03T13:43:25.877Z,9.95
2018-03-03T13:45:53.350Z,8.85
2018-03-03T13:48:20.823Z,8.82
2018-03-03T13:50:48.295Z,7.68
2018-03-03T13:53:15.770Z,7.82
2018-03-03T13:55:43.258Z,8.02
2018-03-03T13:58:11.490Z,9.65
2018-03-03T14:00:38.971Z,8.02
2018-03-03T14:03:06.430Z,8.90
2018-03-03T14:05:33.904Z,7.62
2018-03-03T14:08:02.146Z,8.63
2018-03-03T14:10:29.667Z,7.60
2018-03-03T14:12:57.125Z,8.82
2018-03-03T14:15:24.851Z,8.50
2018-03-03T14:17:52.365Z,8.43
2018-03-03T14:20:19.833Z,7.57
2018-03-03T14:22:47.352Z,8.45
2018-03-03T14:25:14.845Z,7.75
2018-03-03T14:27:48.689Z,8.35
2018-03-03T14:30:16.184Z,9.20
2018-03-03T14:32:43.674Z,10.07
2018-03-03T14:35:11.148Z,9.32
2018-03-03T14:40:49.501Z,9.45
2018-03-03T14:43:17.767Z,10.55
2018-03-03T14:45:45.229Z,9.98
2018-03-03T14:48:12.706Z,10.38
2018-03-03T14:50:40.966Z,11.50
2018-03-03T14:53:08.438Z,10.82
2018-03-03T14:55:36.691Z,10.70
2018-03-03T14:58:04.183Z,9.93
2018-03-03T15:00:31.656Z,11.63
2018-03-03T15:02:59.196Z,8.63
2018-03-03T15:05:26.687Z,10.18
2018-03-03T15:07:54.178Z,9.35
2018-03-03T15:10:21.782Z,9.73
2018-03-03T15:12:49.278Z,13.15
2018-03-03T15:15:17.096Z,11.38
2018-03-03T15:17:45.347Z,12.30
2018-03-03T15:20:12.824Z,10.25
2018-03-03T15:22:41.077Z,11.50
2018-03-03T15:25:08.557Z,10.55
2018-03-03T15:27:36.799Z,12.48
2018-03-03T15:30:04.262Z,11.23
2018-03-03T15:32:31.730Z,10.90
2018-03-03T15:34:59.185Z,12.63
2018-03-03T15:37:26.673Z,11.10
2018-03-03T15:39:54.907Z,11.18
2018-03-03T15:42:23.180Z,11.27
2018-03-03T15:44:50.637Z,12.25
2018-03-03T15:47:18.093Z,11.35
2018-03-03T15:49:45.679Z,12.40
2018-03-03T15:52:13.232Z,12.20
2018-03-03T15:54:40.704Z,11.60
2018-03-03T15:57:08.165Z,11.07
2018-03-03T15:59:36.408Z,10.90
2018-03-03T16:02:03.893Z,11.23
2018-03-03T16:04:31.355Z,11.85
2018-03-03T16:06:59.652Z,15.60
2018-03-03T16:09:27.103Z,17.85
2018-03-03T16:11:55.386Z,14.75
2018-03-03T16:14:22.845Z,12.63
2018-03-03T16:16:50.380Z,15.93
2018-03-03T16:19:17.858Z,14.27
2018-03-03T16:21:46.130Z,14.40
2018-03-03T16:24:14.369Z,15.75
2018-03-03T16:26:41.831Z,14.27
2018-03-03T16:29:09.307Z,13.93
2018-03-03T16:31:36.781Z,13.85
2018-03-03T16:34:05.021Z,16.15
2018-03-03T16:36:32.465Z,12.88
2018-03-03T16:39:00.020Z,16.33
2018-03-03T16:41:28.209Z,15.25
2018-03-03T16:43:55.687Z,15.70
2018-03-03T16:46:23.151Z,14.05
2018-03-03T16:48:50.620Z,15.23
2018-03-03T16:51:18.850Z,15.57
2018-03-03T16:53:46.305Z,15.25
2018-03-03T16:56:13.792Z,14.95
2018-03-03T16:58:41.255Z,12.68
2018-03-03T17:01:08.737Z,12.13
2018-03-03T17:03:36.197Z,12.93
2018-03-03T17:06:04.443Z,11.68
2018-03-03T17:08:32.085Z,11.00
2018-03-03T17:11:00.032Z,10.75
2018-03-03T17:13:28.002Z,10.27
2018-03-03T17:15:55.968Z,11.32
2018-03-03T17:18:23.936Z,10.20
2018-03-03T17:20:52.756Z,9.93
2018-03-03T17:23:20.692Z,9.65
2018-03-03T17:25:48.574Z,9.50
2018-03-03T17:28:16.641Z,9.70
2018-03-03T17:30:44.126Z,8.38
2018-03-03T17:33:11.623Z,9.23
2018-03-03T17:35:40.245Z,10.15
2018-03-03T17:38:08.117Z,10.52
2018-03-03T17:40:36.796Z,10.50
2018-03-03T17:43:04.662Z,9.25
2018-03-03T17:45:32.527Z,10.88
2018-03-03T17:48:00.194Z,10.90
2018-03-03T17:50:28.161Z,10.13
2018-03-03T17:52:56.038Z,9.50
2018-03-03T17:55:23.899Z,9.00
2018-03-03T17:57:51.766Z,9.15
2018-03-03T18:03:14.732Z,9.13
2018-03-03T18:05:42.701Z,10.57
2018-03-03T18:08:10.674Z,10.07
2018-03-03T18:10:38.651Z,10.57
2018-03-03T18:13:07.433Z,9.43
2018-03-03T18:15:34.889Z,10.27
2018-03-03T18:18:03.118Z,9.85
2018-03-03T18:20:31.343Z,9.68
2018-03-03T18:22:58.810Z,11.70
2018-03-03T18:25:26.272Z,14.90
2018-03-03T18:27:53.746Z,13.15
2018-03-03T18:30:21.254Z,11.63
2018-03-03T18:32:48.713Z,10.93
2018-03-03T18:35:16.192Z,10.63
2018-03-03T18:37:43.648Z,11.23
2018-03-03T18:40:11.129Z,11.20
2018-03-03T18:42:38.625Z,8.45
2018-03-03T18:45:06.861Z,9.63
2018-03-03T18:47:34.322Z,9.52
2018-03-03T18:50:01.827Z,10.35
2018-03-03T18:52:35.994Z,9.85
2018-03-03T18:55:03.475Z,10.73
2018-03-03T18:57:31.198Z,10.15
2018-03-03T18:59:59.068Z,10.25
2018-03-03T19:02:26.937Z,9.20
2018-03-03T19:04:55.040Z,9.38
2018-03-03T19:07:23.075Z,7.85
2018-03-03T19:09:50.941Z,8.65
2018-03-03T19:12:19.112Z,8.38
2018-03-03T19:14:47.161Z,8.43
2018-03-03T19:17:15.065Z,8.93
2018-03-03T19:19:43.026Z,7.57
2018-03-03T19:22:10.899Z,8.85
2018-03-03T19:24:38.869Z,7.90
2018-03-03T19:27:06.733Z,8.18
2018-03-03T19:29:34.762Z,8.20
2018-03-03T19:32:03.181Z,9.90
2018-03-03T19:34:30.944Z,8.13
2018-03-03T19:37:00.184Z,7.65
2018-03-03T19:39:28.503Z,8.60
2018-03-03T19:42:00.496Z,8.57
2018-03-03T19:44:29.541Z,8.50
2018-03-03T19:46:57.832Z,9.57
2018-03-03T19:49:26.841Z,8.77
2018-03-03T19:51:56.562Z,9.10
2018-03-03T19:54:24.255Z,9.15
2018-03-03T19:56:52.798Z,8.60
2018-03-03T19:59:20.262Z,7.25
2018-03-03T20:01:47.731Z,8.77
2018-03-03T20:04:15.415Z,8.25
2018-03-03T20:06:46.102Z,10.00
2018-03-03T20:09:14.306Z,7.55
2018-03-03T20:11:42.987Z,8.15
2018-03-03T20:14:17.561Z,7.72
2018-03-03T20:16:46.189Z,9.00
2018-03-03T20:19:13.964Z,10.07
2018-03-03T20:21:41.835Z,11.50
2018-03-03T20:24:10.509Z,10.70
2018-03-03T20:26:38.594Z,9.63
2018-03-03T20:29:06.885Z,10.25
2018-03-03T20:31:34.766Z,8.05
2018-03-03T20:34:02.695Z,8.88
2018-03-03T20:36:30.490Z,8.88
2018-03-03T20:38:59.870Z,8.25
2018-03-03T20:41:27.939Z,7.40
2018-03-03T20:43:56.130Z,7.93
2018-03-03T20:46:26.347Z,8.40
2018-03-03T20:48:53.994Z,9.25
2018-03-03T20:54:12.083Z,8.27
2018-03-03T20:56:40.405Z,8.82
2018-03-03T20:59:23.315Z,8.73
2018-03-03T21:01:50.846Z,8.43
2018-03-03T21:04:18.434Z,7.18
2018-03-03T21:06:46.024Z,7.30
2018-03-03T21:09:13.616Z,7.20
2018-03-03T21:11:59.871Z,7.65
2018-03-03T21:14:27.421Z,7.95
2018-03-03T21:16:55.723Z,7.97
2018-03-03T21:19:23.320Z,8.32
2018-03-03T21:21:50.986Z,8.93
2018-03-03T21:24:18.500Z,7.45
2018-03-03T21:26:46.047Z,7.95
2018-03-03T21:29:14.498Z,7.70
2018-03-03T21:31:42.104Z,7.47
2018-03-03T21:34:09.719Z,8.70
2018-03-03T21:36:38.161Z,8.90
2018-03-03T21:39:05.782Z,7.90
2018-03-03T21:41:34.044Z,8.00
2018-03-03T21:44:01.523Z,7.28
2018-03-03T21:46:29.819Z,9.13
2018-03-03T21:48:57.340Z,8.75
2018-03-03T21:51:25.653Z,8.95
2018-03-03T21:53:53.190Z,9.15
2018-03-03T21:56:21.450Z,7.68
2018-03-03T21:58:48.942Z,9.18
2018-03-03T22:01:16.496Z,8.60
2018-03-03T22:03:44.100Z,8.32
2018-03-03T22:06:11.588Z,8.23
2018-03-03T22:08:45.732Z,8.55
2018-03-03T22:11:14.121Z,8.65
2018-03-03T22:13:41.684Z,8.00
2018-03-03T22:16:10.001Z,7.57
2018-03-03T22:18:37.564Z,8.30
2018-03-03T22:21:05.178Z,8.15
2018-03-03T22:23:32.743Z,8.63
2018-03-03T22:26:00.416Z,8.57
2018-03-03T22:28:27.878Z,8.30
2018-03-03T22:30:55.351Z,8.75
2018-03-03T22:33:22.870Z,7.57
2018-03-03T22:35:50.286Z,7.70
2018-03-03T22:38:17.773Z,8.65
2018-03-03T22:40:46.009Z,8.52
2018-03-03T22:43:13.472Z,8.20
2018-03-03T22:45:40.943Z,9.68
2018-03-03T22:48:08.406Z,9.45
2018-03-03T22:50:35.860Z,8.00
2018-03-03T22:53:03.316Z,9.15
2018-03-03T22:55:30.797Z,9.20
2018-03-03T22:57:59.046Z,7.90
2018-03-03T23:00:26.509Z,8.45
2018-03-03T23:02:53.973Z,8.45
2018-03-03T23:05:21.434Z,7.55
2018-03-03T23:07:48.908Z,8.25
2018-03-03T23:10:17.142Z,7.85
2018-03-03T23:12:44.630Z,8.02
2018-03-03T23:15:12.083Z,7.62
2018-03-03T23:17:39.536Z,7.37
2018-03-03T23:20:07.012Z,7.28
2018-03-03T23:22:34.482Z,7.62
2018-03-03T23:25:02.704Z,8.65
2018-03-03T23:27:30.177Z,8.95
2018-03-03T23:29:57.664Z,9.20
2018-03-03T23:32:25.892Z,8.05
2018-03-03T23:35:08.307Z,7.85
2018-03-03T23:37:35.760Z,9.43
2018-03-03T23:40:03.237Z,8.85
2018-03-03T23:42:30.707Z,9.13
2018-03-03T23:44:58.222Z,8.98
2018-03-03T23:47:25.679Z,8.60
2018-03-03T23:49:53.144Z,9.75
2018-03-03T23:52:20.607Z,7.97
2018-03-03T23:54:48.058Z,8.48
2018-03-03T23:57:15.534Z,8.60
2018-03-03T23:59:42.977Z,8.25
